sensor_id;sensor_type;location;lat;lon;timestamp;pressure;altitude;pressure_sealevel;temperature;humidity
9676;BME280;4876;42.656;23.292;2023-04-15T00:02:13;93596.41;;;8.06;71.79
9676;BME280;4876;42.656;23.292;2023-04-15T00:04:40;93606.91;;;7.98;71.29
9676;BME280;4876;42.656;23.292;2023-04-15T00:07:06;93608.00;;;7.88;73.49
9676;BME280;4876;42.656;23.292;2023-04-15T00:12:22;93615.84;;;7.88;77.11
9676;BME280;4876;42.656;23.292;2023-04-15T00:14:49;93605.03;;;8.07;77.12
9676;BME280;4876;42.656;23.292;2023-04-15T00:17:15;93604.78;;;7.91;78.24
9676;BME280;4876;42.656;23.292;2023-04-15T00:19:42;93612.91;;;8.07;78.72
9676;BME280;4876;42.656;23.292;2023-04-15T00:22:10;93606.56;;;8.17;79.13
9676;BME280;4876;42.656;23.292;2023-04-15T00:24:38;93601.91;;;8.31;78.70
9676;BME280;4876;42.656;23.292;2023-04-15T00:27:05;93605.16;;;8.45;78.71
9676;BME280;4876;42.656;23.292;2023-04-15T00:29:32;93600.31;;;8.56;78.04
9676;BME280;4876;42.656;23.292;2023-04-15T00:32:00;93603.09;;;8.59;77.41
9676;BME280;4876;42.656;23.292;2023-04-15T00:34:27;93605.69;;;8.59;76.66
9676;BME280;4876;42.656;23.292;2023-04-15T00:36:54;93593.41;;;8.51;76.52
9676;BME280;4876;42.656;23.292;2023-04-15T00:39:21;93600.97;;;8.44;77.02
9676;BME280;4876;42.656;23.292;2023-04-15T00:41:49;93608.91;;;8.65;77.33
9676;BME280;4876;42.656;23.292;2023-04-15T00:44:16;93604.03;;;8.55;76.35
9676;BME280;4876;42.656;23.292;2023-04-15T00:46:44;93607.47;;;8.29;77.02
9676;BME280;4876;42.656;23.292;2023-04-15T00:49:12;93603.94;;;8.17;77.72
9676;BME280;4876;42.656;23.292;2023-04-15T00:51:39;93588.69;;;8.19;77.26
9676;BME280;4876;42.656;23.292;2023-04-15T00:54:05;93606.41;;;8.22;76.62
9676;BME280;4876;42.656;23.292;2023-04-15T00:56:34;93597.25;;;7.90;77.24
9676;BME280;4876;42.656;23.292;2023-04-15T00:59:04;93607.69;;;7.81;78.08
9676;BME280;4876;42.656;23.292;2023-04-15T01:01:34;93608.78;;;7.80;78.35
9676;BME280;4876;42.656;23.292;2023-04-15T01:04:01;93616.66;;;7.71;79.62
9676;BME280;4876;42.656;23.292;2023-04-15T01:06:29;93614.78;;;7.89;79.25
9676;BME280;4876;42.656;23.292;2023-04-15T01:08:57;93614.75;;;8.06;77.17
9676;BME280;4876;42.656;23.292;2023-04-15T01:11:24;93623.38;;;8.07;76.97
9676;BME280;4876;42.656;23.292;2023-04-15T01:13:51;93624.25;;;8.20;76.14
9676;BME280;4876;42.656;23.292;2023-04-15T01:16:21;93613.31;;;8.35;75.00
9676;BME280;4876;42.656;23.292;2023-04-15T01:18:48;93616.56;;;8.41;73.71
9676;BME280;4876;42.656;23.292;2023-04-15T01:21:15;93593.59;;;8.29;73.92
9676;BME280;4876;42.656;23.292;2023-04-15T01:23:43;93611.16;;;8.37;74.81
9676;BME280;4876;42.656;23.292;2023-04-15T01:26:14;93603.63;;;8.35;74.79
9676;BME280;4876;42.656;23.292;2023-04-15T01:28:41;93604.69;;;8.26;75.65
9676;BME280;4876;42.656;23.292;2023-04-15T01:31:10;93594.69;;;8.36;75.62
9676;BME280;4876;42.656;23.292;2023-04-15T01:33:38;93616.25;;;8.42;76.07
9676;BME280;4876;42.656;23.292;2023-04-15T01:36:06;93598.81;;;8.46;75.62
9676;BME280;4876;42.656;23.292;2023-04-15T01:38:34;93600.97;;;8.44;75.18
9676;BME280;4876;42.656;23.292;2023-04-15T01:41:01;93601.78;;;8.36;75.95
9676;BME280;4876;42.656;23.292;2023-04-15T01:43:30;93599.16;;;8.36;76.29
9676;BME280;4876;42.656;23.292;2023-04-15T01:45:57;93615.16;;;8.43;76.02
9676;BME280;4876;42.656;23.292;2023-04-15T01:48:24;93616.25;;;8.42;75.58
9676;BME280;4876;42.656;23.292;2023-04-15T01:50:53;93622.72;;;8.45;75.89
9676;BME280;4876;42.656;23.292;2023-04-15T01:53:22;93626.22;;;8.57;74.94
9676;BME280;4876;42.656;23.292;2023-04-15T01:55:48;93627.50;;;8.34;74.56
9676;BME280;4876;42.656;23.292;2023-04-15T01:58:15;93627.19;;;8.18;75.75
9676;BME280;4876;42.656;23.292;2023-04-15T02:00:43;93620.75;;;8.16;76.19
9676;BME280;4876;42.656;23.292;2023-04-15T02:03:10;93623.06;;;8.17;76.18
9676;BME280;4876;42.656;23.292;2023-04-15T02:05:37;93621.66;;;8.20;75.86
9676;BME280;4876;42.656;23.292;2023-04-15T02:08:04;93621.66;;;8.20;75.34
9676;BME280;4876;42.656;23.292;2023-04-15T02:10:31;93615.03;;;8.22;74.68
9676;BME280;4876;42.656;23.292;2023-04-15T02:12:57;93626.00;;;8.16;75.34
9676;BME280;4876;42.656;23.292;2023-04-15T02:15:24;93615.81;;;8.23;75.24
9676;BME280;4876;42.656;23.292;2023-04-15T02:17:53;93617.34;;;8.24;74.59
9676;BME280;4876;42.656;23.292;2023-04-15T02:20:20;93611.97;;;8.20;74.92
9676;BME280;4876;42.656;23.292;2023-04-15T02:22:47;93604.41;;;8.19;73.55
9676;BME280;4876;42.656;23.292;2023-04-15T02:25:14;93603.22;;;8.07;74.01
9676;BME280;4876;42.656;23.292;2023-04-15T02:27:42;93596.72;;;8.14;73.96
9676;BME280;4876;42.656;23.292;2023-04-15T02:30:09;93600.56;;;8.16;74.13
9676;BME280;4876;42.656;23.292;2023-04-15T02:32:37;93606.41;;;8.22;73.91
9676;BME280;4876;42.656;23.292;2023-04-15T02:35:06;93613.97;;;8.15;73.75
9676;BME280;4876;42.656;23.292;2023-04-15T02:37:35;93618.19;;;7.72;76.48
9676;BME280;4876;42.656;23.292;2023-04-15T02:40:07;93622.03;;;7.40;81.21
9676;BME280;4876;42.656;23.292;2023-04-15T02:42:36;93617.72;;;7.44;83.09
9676;BME280;4876;42.656;23.292;2023-04-15T02:45:04;93622.81;;;7.58;83.72
9676;BME280;4876;42.656;23.292;2023-04-15T02:47:31;93624.78;;;7.70;82.39
9676;BME280;4876;42.656;23.292;2023-04-15T02:49:58;93614.66;;;7.60;82.96
9676;BME280;4876;42.656;23.292;2023-04-15T02:52:27;93617.88;;;7.65;83.03
9676;BME280;4876;42.656;23.292;2023-04-15T02:54:54;93627.41;;;7.61;82.69
9676;BME280;4876;42.656;23.292;2023-04-15T02:57:25;93612.63;;;7.56;81.79
9676;BME280;4876;42.656;23.292;2023-04-15T02:59:52;93628.81;;;7.59;82.22
9676;BME280;4876;42.656;23.292;2023-04-15T03:02:19;93624.03;;;7.35;82.83
9676;BME280;4876;42.656;23.292;2023-04-15T03:04:46;93631.25;;;7.29;84.06
9676;BME280;4876;42.656;23.292;2023-04-15T03:07:13;93637.84;;;7.18;85.41
9676;BME280;4876;42.656;23.292;2023-04-15T03:09:41;93629.03;;;6.96;87.01
9676;BME280;4876;42.656;23.292;2023-04-15T03:12:08;93635.47;;;6.90;87.62
9676;BME280;4876;42.656;23.292;2023-04-15T03:14:35;93639.19;;;6.98;87.52
9676;BME280;4876;42.656;23.292;2023-04-15T03:17:01;93638.16;;;6.68;88.14
9676;BME280;4876;42.656;23.292;2023-04-15T03:19:28;93648.03;;;6.40;89.73
9676;BME280;4876;42.656;23.292;2023-04-15T03:21:55;93648.13;;;6.66;88.69
9676;BME280;4876;42.656;23.292;2023-04-15T03:24:22;93645.69;;;6.69;87.75
9676;BME280;4876;42.656;23.292;2023-04-15T03:26:50;93636.69;;;5.77;91.44
9676;BME280;4876;42.656;23.292;2023-04-15T03:29:17;93651.47;;;5.82;93.20
9676;BME280;4876;42.656;23.292;2023-04-15T03:31:44;93649.16;;;6.25;91.72
9676;BME280;4876;42.656;23.292;2023-04-15T03:34:10;93657.56;;;6.44;90.12
9676;BME280;4876;42.656;23.292;2023-04-15T03:36:37;93661.41;;;6.47;89.90
9676;BME280;4876;42.656;23.292;2023-04-15T03:39:04;93659.28;;;6.49;89.58
9676;BME280;4876;42.656;23.292;2023-04-15T03:41:31;93669.94;;;6.61;88.49
9676;BME280;4876;42.656;23.292;2023-04-15T03:43:59;93664.88;;;6.65;86.75
9676;BME280;4876;42.656;23.292;2023-04-15T03:46:26;93678.66;;;6.57;88.16
9676;BME280;4876;42.656;23.292;2023-04-15T03:48:53;93682.44;;;6.73;87.58
9676;BME280;4876;42.656;23.292;2023-04-15T03:51:20;93695.84;;;6.89;86.98
9676;BME280;4876;42.656;23.292;2023-04-15T03:53:46;93694.53;;;7.00;85.79
9676;BME280;4876;42.656;23.292;2023-04-15T03:56:13;93696.38;;;6.99;85.87
9676;BME280;4876;42.656;23.292;2023-04-15T03:58:40;93693.50;;;7.10;86.74
9676;BME280;4876;42.656;23.292;2023-04-15T04:01:08;93692.06;;;7.52;86.65
9676;BME280;4876;42.656;23.292;2023-04-15T04:03:35;93695.16;;;8.06;82.92
9676;BME280;4876;42.656;23.292;2023-04-15T04:06:02;93691.25;;;8.55;78.94
9676;BME280;4876;42.656;23.292;2023-04-15T04:08:29;93674.00;;;8.54;76.57
9676;BME280;4876;42.656;23.292;2023-04-15T04:10:56;93701.38;;;9.12;75.49
9676;BME280;4876;42.656;23.292;2023-04-15T04:13:23;93696.31;;;9.46;74.88
9676;BME280;4876;42.656;23.292;2023-04-15T04:15:49;93702.22;;;10.05;71.88
9676;BME280;4876;42.656;23.292;2023-04-15T04:18:17;93692.88;;;10.37;69.67
9676;BME280;4876;42.656;23.292;2023-04-15T04:20:44;93698.44;;;10.69;67.90
9676;BME280;4876;42.656;23.292;2023-04-15T04:23:11;93698.81;;;11.04;66.30
9676;BME280;4876;42.656;23.292;2023-04-15T04:25:38;93705.19;;;11.64;64.55
9676;BME280;4876;42.656;23.292;2023-04-15T04:28:04;93701.88;;;11.92;62.40
9676;BME280;4876;42.656;23.292;2023-04-15T04:30:31;93695.03;;;12.03;61.20
9676;BME280;4876;42.656;23.292;2023-04-15T04:32:58;93698.88;;;12.05;61.20
9676;BME280;4876;42.656;23.292;2023-04-15T04:35:26;93703.63;;;12.00;61.36
9676;BME280;4876;42.656;23.292;2023-04-15T04:37:53;93704.59;;;12.35;59.45
9676;BME280;4876;42.656;23.292;2023-04-15T04:40:20;93710.72;;;12.39;59.59
9676;BME280;4876;42.656;23.292;2023-04-15T04:42:47;93697.50;;;12.52;59.33
9676;BME280;4876;42.656;23.292;2023-04-15T04:45:14;93705.34;;;12.64;58.26
9676;BME280;4876;42.656;23.292;2023-04-15T04:47:41;93715.84;;;12.76;57.79
9676;BME280;4876;42.656;23.292;2023-04-15T04:50:08;93710.13;;;12.30;58.53
9676;BME280;4876;42.656;23.292;2023-04-15T04:52:37;93711.00;;;11.82;60.00
9676;BME280;4876;42.656;23.292;2023-04-15T04:55:04;93707.78;;;12.01;60.25
9676;BME280;4876;42.656;23.292;2023-04-15T04:57:33;93726.50;;;12.24;59.73
9676;BME280;4876;42.656;23.292;2023-04-15T05:00:00;93739.00;;;12.83;57.98
9676;BME280;4876;42.656;23.292;2023-04-15T05:02:27;93737.34;;;11.57;60.90
9676;BME280;4876;42.656;23.292;2023-04-15T05:04:54;93737.22;;;11.78;61.41
9676;BME280;4876;42.656;23.292;2023-04-15T05:07:21;93739.97;;;11.70;60.16
9676;BME280;4876;42.656;23.292;2023-04-15T05:09:49;93738.94;;;11.01;63.02
9676;BME280;4876;42.656;23.292;2023-04-15T05:12:16;93758.50;;;11.61;60.55
9676;BME280;4876;42.656;23.292;2023-04-15T05:14:42;93762.19;;;12.21;57.86
9676;BME280;4876;42.656;23.292;2023-04-15T05:17:11;93768.28;;;11.97;58.66
9676;BME280;4876;42.656;23.292;2023-04-15T05:22:23;93767.75;;;10.97;62.37
9676;BME280;4876;42.656;23.292;2023-04-15T05:24:51;93765.69;;;11.03;62.60
9676;BME280;4876;42.656;23.292;2023-04-15T05:27:18;93773.31;;;10.84;61.88
9676;BME280;4876;42.656;23.292;2023-04-15T05:29:45;93761.28;;;10.62;62.14
9676;BME280;4876;42.656;23.292;2023-04-15T05:32:11;93761.34;;;10.74;61.82
9676;BME280;4876;42.656;23.292;2023-04-15T05:34:38;93754.13;;;10.08;63.98
9676;BME280;4876;42.656;23.292;2023-04-15T05:37:05;93751.72;;;10.45;64.74
9676;BME280;4876;42.656;23.292;2023-04-15T05:39:32;93751.66;;;10.66;63.51
9676;BME280;4876;42.656;23.292;2023-04-15T05:42:00;93753.34;;;10.70;65.25
9676;BME280;4876;42.656;23.292;2023-04-15T05:44:27;93749.28;;;11.06;63.76
9676;BME280;4876;42.656;23.292;2023-04-15T05:46:53;93753.00;;;11.29;62.85
9676;BME280;4876;42.656;23.292;2023-04-15T05:49:20;93745.50;;;10.95;61.68
9676;BME280;4876;42.656;23.292;2023-04-15T05:51:47;93753.34;;;10.70;62.40
9676;BME280;4876;42.656;23.292;2023-04-15T05:54:14;93759.59;;;11.48;62.00
9676;BME280;4876;42.656;23.292;2023-04-15T05:56:41;93760.06;;;11.62;60.74
9676;BME280;4876;42.656;23.292;2023-04-15T05:59:09;93761.13;;;11.49;60.98
9676;BME280;4876;42.656;23.292;2023-04-15T06:01:36;93759.91;;;11.22;60.53
9676;BME280;4876;42.656;23.292;2023-04-15T06:04:03;93767.28;;;11.41;60.22
9676;BME280;4876;42.656;23.292;2023-04-15T06:06:30;93767.50;;;11.60;59.38
9676;BME280;4876;42.656;23.292;2023-04-15T06:08:57;93780.25;;;11.70;60.01
9676;BME280;4876;42.656;23.292;2023-04-15T06:11:24;93778.59;;;11.66;58.99
9676;BME280;4876;42.656;23.292;2023-04-15T06:13:51;93773.66;;;11.52;59.91
9676;BME280;4876;42.656;23.292;2023-04-15T06:16:19;93783.09;;;12.02;59.25
9676;BME280;4876;42.656;23.292;2023-04-15T06:18:47;93776.97;;;11.85;58.49
9676;BME280;4876;42.656;23.292;2023-04-15T06:21:14;93780.91;;;12.04;58.82
9676;BME280;4876;42.656;23.292;2023-04-15T06:23:41;93790.88;;;12.10;58.06
9676;BME280;4876;42.656;23.292;2023-04-15T06:26:08;93799.66;;;12.15;57.48
9676;BME280;4876;42.656;23.292;2023-04-15T06:28:35;93801.66;;;12.18;58.53
9676;BME280;4876;42.656;23.292;2023-04-15T06:31:02;93799.03;;;11.93;59.14
9676;BME280;4876;42.656;23.292;2023-04-15T06:33:30;93808.47;;;12.06;58.93
9676;BME280;4876;42.656;23.292;2023-04-15T06:35:57;93802.53;;;12.09;59.12
9676;BME280;4876;42.656;23.292;2023-04-15T06:38:24;93805.31;;;12.41;58.37
9676;BME280;4876;42.656;23.292;2023-04-15T06:40:51;93806.78;;;11.41;60.63
9676;BME280;4876;42.656;23.292;2023-04-15T06:43:18;93810.97;;;12.15;58.83
9676;BME280;4876;42.656;23.292;2023-04-15T06:45:45;93811.84;;;12.31;58.69
9676;BME280;4876;42.656;23.292;2023-04-15T06:48:12;93812.91;;;12.43;58.02
9676;BME280;4876;42.656;23.292;2023-04-15T06:50:40;93817.28;;;12.51;57.37
9676;BME280;4876;42.656;23.292;2023-04-15T06:53:06;93827.84;;;12.79;57.51
9676;BME280;4876;42.656;23.292;2023-04-15T06:55:33;93820.97;;;12.74;57.31
9676;BME280;4876;42.656;23.292;2023-04-15T06:58:00;93812.25;;;13.02;57.22
9676;BME280;4876;42.656;23.292;2023-04-15T07:00:27;93812.88;;;13.11;56.78
9676;BME280;4876;42.656;23.292;2023-04-15T07:02:55;93812.66;;;12.88;57.18
9676;BME280;4876;42.656;23.292;2023-04-15T07:05:21;93813.88;;;13.34;56.59
9676;BME280;4876;42.656;23.292;2023-04-15T07:07:51;93814.84;;;13.73;55.14
9676;BME280;4876;42.656;23.292;2023-04-15T07:10:17;93812.78;;;13.83;53.83
9676;BME280;4876;42.656;23.292;2023-04-15T07:12:44;93814.56;;;13.63;54.24
9676;BME280;4876;42.656;23.292;2023-04-15T07:15:11;93821.97;;;13.41;54.63
9676;BME280;4876;42.656;23.292;2023-04-15T07:17:39;93818.59;;;13.57;55.39
9676;BME280;4876;42.656;23.292;2023-04-15T07:20:08;93817.19;;;13.79;53.37
9676;BME280;4876;42.656;23.292;2023-04-15T07:22:35;93819.84;;;13.47;54.77
9676;BME280;4876;42.656;23.292;2023-04-15T07:25:03;93816.53;;;13.82;54.44
9676;BME280;4876;42.656;23.292;2023-04-15T07:27:30;93819.75;;;13.59;53.40
9676;BME280;4876;42.656;23.292;2023-04-15T07:29:57;93809.28;;;13.63;53.76
9676;BME280;4876;42.656;23.292;2023-04-15T07:32:24;93822.75;;;13.73;53.99
9676;BME280;4876;42.656;23.292;2023-04-15T07:34:51;93823.44;;;13.55;52.88
9676;BME280;4876;42.656;23.292;2023-04-15T07:37:18;93821.88;;;13.38;54.94
9676;BME280;4876;42.656;23.292;2023-04-15T07:39:45;93817.38;;;13.70;54.49
9676;BME280;4876;42.656;23.292;2023-04-15T07:42:13;93816.59;;;13.54;54.49
9676;BME280;4876;42.656;23.292;2023-04-15T07:44:40;93807.16;;;13.68;54.57
9676;BME280;4876;42.656;23.292;2023-04-15T07:47:07;93814.75;;;13.54;54.12
9676;BME280;4876;42.656;23.292;2023-04-15T07:49:34;93830.31;;;13.59;54.14
9676;BME280;4876;42.656;23.292;2023-04-15T07:52:00;93825.81;;;13.44;53.52
9676;BME280;4876;42.656;23.292;2023-04-15T07:54:28;93830.50;;;13.51;54.06
9676;BME280;4876;42.656;23.292;2023-04-15T07:56:54;93836.97;;;13.53;53.70
9676;BME280;4876;42.656;23.292;2023-04-15T07:59:23;93837.91;;;13.29;53.49
9676;BME280;4876;42.656;23.292;2023-04-15T08:01:49;93845.66;;;13.10;53.34
9676;BME280;4876;42.656;23.292;2023-04-15T08:04:16;93838.97;;;13.28;53.18
9676;BME280;4876;42.656;23.292;2023-04-15T08:06:43;93841.31;;;13.45;53.78
9676;BME280;4876;42.656;23.292;2023-04-15T08:09:10;93837.22;;;13.32;52.95
9676;BME280;4876;42.656;23.292;2023-04-15T08:11:37;93836.31;;;13.88;50.11
9676;BME280;4876;42.656;23.292;2023-04-15T08:14:03;93839.78;;;14.08;50.44
9676;BME280;4876;42.656;23.292;2023-04-15T08:16:32;93813.13;;;13.50;51.01
9676;BME280;4876;42.656;23.292;2023-04-15T08:18:59;93827.88;;;13.82;52.46
9676;BME280;4876;42.656;23.292;2023-04-15T08:21:26;93832.56;;;14.05;51.88
9676;BME280;4876;42.656;23.292;2023-04-15T08:23:55;93840.69;;;14.15;50.19
9676;BME280;4876;42.656;23.292;2023-04-15T08:26:22;93838.03;;;14.31;48.30
9676;BME280;4876;42.656;23.292;2023-04-15T08:28:48;93839.97;;;14.34;46.58
9676;BME280;4876;42.656;23.292;2023-04-15T08:31:17;93834.47;;;14.59;46.73
9676;BME280;4876;42.656;23.292;2023-04-15T08:33:45;93826.72;;;14.66;46.96
9676;BME280;4876;42.656;23.292;2023-04-15T08:36:12;93824.31;;;15.19;46.03
9676;BME280;4876;42.656;23.292;2023-04-15T08:38:39;93827.16;;;15.29;44.17
9676;BME280;4876;42.656;23.292;2023-04-15T08:41:11;93828.13;;;15.41;44.37
9676;BME280;4876;42.656;23.292;2023-04-15T08:43:46;93822.88;;;15.44;46.03
9676;BME280;4876;42.656;23.292;2023-04-15T08:46:15;93814.34;;;15.54;41.89
9676;BME280;4876;42.656;23.292;2023-04-15T08:48:44;93821.94;;;15.14;41.53
9676;BME280;4876;42.656;23.292;2023-04-15T08:51:13;93816.09;;;15.24;43.16
9676;BME280;4876;42.656;23.292;2023-04-15T08:53:41;93806.94;;;15.64;41.68
9676;BME280;4876;42.656;23.292;2023-04-15T08:56:10;93803.13;;;15.84;41.39
9676;BME280;4876;42.656;23.292;2023-04-15T08:58:38;93804.47;;;16.24;42.21
9676;BME280;4876;42.656;23.292;2023-04-15T09:01:05;93811.41;;;15.82;42.67
9676;BME280;4876;42.656;23.292;2023-04-15T09:03:32;93809.00;;;15.74;41.77
9676;BME280;4876;42.656;23.292;2023-04-15T09:06:03;93789.41;;;15.78;40.87
9676;BME280;4876;42.656;23.292;2023-04-15T09:08:30;93796.50;;;15.97;39.66
9676;BME280;4876;42.656;23.292;2023-04-15T09:10:57;93807.31;;;15.85;39.71
9676;BME280;4876;42.656;23.292;2023-04-15T09:13:23;93801.06;;;15.74;38.69
9676;BME280;4876;42.656;23.292;2023-04-15T09:15:51;93789.91;;;15.65;38.19
9676;BME280;4876;42.656;23.292;2023-04-15T09:18:27;93789.84;;;15.61;38.31
9676;BME280;4876;42.656;23.292;2023-04-15T09:20:54;93774.84;;;15.69;37.07
9676;BME280;4876;42.656;23.292;2023-04-15T09:23:23;93780.53;;;15.94;38.05
9676;BME280;4876;42.656;23.292;2023-04-15T09:25:49;93774.25;;;16.05;38.21
9676;BME280;4876;42.656;23.292;2023-04-15T09:28:23;93771.25;;;15.80;36.84
9676;BME280;4876;42.656;23.292;2023-04-15T09:30:54;93789.66;;;15.96;36.88
9676;BME280;4876;42.656;23.292;2023-04-15T09:33:21;93781.38;;;16.01;36.78
9676;BME280;4876;42.656;23.292;2023-04-15T09:35:55;93758.44;;;16.12;35.17
9676;BME280;4876;42.656;23.292;2023-04-15T09:38:24;93779.00;;;16.19;35.06
9676;BME280;4876;42.656;23.292;2023-04-15T09:40:51;93770.56;;;16.40;35.70
9676;BME280;4876;42.656;23.292;2023-04-15T09:43:18;93780.16;;;16.52;36.60
9676;BME280;4876;42.656;23.292;2023-04-15T09:45:49;93782.13;;;16.55;36.02
9676;BME280;4876;42.656;23.292;2023-04-15T09:48:18;93790.78;;;15.95;36.34
9676;BME280;4876;42.656;23.292;2023-04-15T09:50:47;93788.75;;;15.85;36.49
9676;BME280;4876;42.656;23.292;2023-04-15T09:53:19;93790.94;;;16.06;35.40
9676;BME280;4876;42.656;23.292;2023-04-15T09:55:48;93793.94;;;16.04;37.30
9676;BME280;4876;42.656;23.292;2023-04-15T09:58:19;93791.59;;;16.26;36.01
9676;BME280;4876;42.656;23.292;2023-04-15T10:00:48;93790.91;;;16.59;35.78
9676;BME280;4876;42.656;23.292;2023-04-15T10:03:18;93790.72;;;16.75;35.10
9676;BME280;4876;42.656;23.292;2023-04-15T10:05:46;93780.22;;;16.25;34.43
9676;BME280;4876;42.656;23.292;2023-04-15T10:08:15;93799.97;;;16.28;35.02
9676;BME280;4876;42.656;23.292;2023-04-15T10:10:44;93800.69;;;16.25;35.14
9676;BME280;4876;42.656;23.292;2023-04-15T10:13:12;93791.59;;;16.26;35.47
9676;BME280;4876;42.656;23.292;2023-04-15T10:15:43;93787.69;;;16.76;36.65
9676;BME280;4876;42.656;23.292;2023-04-15T10:18:15;93772.97;;;17.16;36.55
9676;BME280;4876;42.656;23.292;2023-04-15T10:20:42;93754.69;;;17.11;35.60
9676;BME280;4876;42.656;23.292;2023-04-15T10:23:10;93780.44;;;17.44;36.01
9676;BME280;4876;42.656;23.292;2023-04-15T10:25:37;93773.38;;;17.62;33.58
9676;BME280;4876;42.656;23.292;2023-04-15T10:28:05;93772.66;;;17.65;33.89
9676;BME280;4876;42.656;23.292;2023-04-15T10:30:35;93766.53;;;17.58;35.11
9676;BME280;4876;42.656;23.292;2023-04-15T10:33:03;93766.78;;;17.90;34.46
9676;BME280;4876;42.656;23.292;2023-04-15T10:35:31;93759.69;;;17.60;34.63
9676;BME280;4876;42.656;23.292;2023-04-15T10:37:59;93766.66;;;17.72;34.44
9676;BME280;4876;42.656;23.292;2023-04-15T10:40:28;93737.34;;;17.68;34.21
9676;BME280;4876;42.656;23.292;2023-04-15T10:42:57;93762.03;;;17.65;34.12
9676;BME280;4876;42.656;23.292;2023-04-15T10:45:27;93764.59;;;18.06;34.21
9676;BME280;4876;42.656;23.292;2023-04-15T10:47:56;93757.06;;;18.15;33.55
9676;BME280;4876;42.656;23.292;2023-04-15T10:50:25;93739.31;;;17.75;34.07
9676;BME280;4876;42.656;23.292;2023-04-15T10:52:53;93749.41;;;18.03;34.41
9676;BME280;4876;42.656;23.292;2023-04-15T10:55:22;93742.50;;;17.95;32.95
9676;BME280;4876;42.656;23.292;2023-04-15T10:57:51;93743.19;;;17.88;33.72
9676;BME280;4876;42.656;23.292;2023-04-15T11:00:21;93753.94;;;17.99;34.99
9676;BME280;4876;42.656;23.292;2023-04-15T11:02:52;93739.72;;;18.43;33.66
9676;BME280;4876;42.656;23.292;2023-04-15T11:05:21;93743.59;;;18.60;33.69
9676;BME280;4876;42.656;23.292;2023-04-15T11:07:51;93743.69;;;18.70;34.78
9676;BME280;4876;42.656;23.292;2023-04-15T11:10:51;93750.06;;;18.59;33.92
9676;BME280;4876;42.656;23.292;2023-04-15T11:13:25;93741.31;;;18.58;34.45
9676;BME280;4876;42.656;23.292;2023-04-15T11:15:57;93732.81;;;18.31;33.46
9676;BME280;4876;42.656;23.292;2023-04-15T11:18:27;93750.31;;;18.28;32.77
9676;BME280;4876;42.656;23.292;2023-04-15T11:20:57;93733.28;;;18.47;33.68
9676;BME280;4876;42.656;23.292;2023-04-15T11:23:36;93737.59;;;18.70;33.99
9676;BME280;4876;42.656;23.292;2023-04-15T11:26:04;93740.13;;;18.48;32.04
9676;BME280;4876;42.656;23.292;2023-04-15T11:28:34;93744.09;;;18.07;33.36
9676;BME280;4876;42.656;23.292;2023-04-15T11:31:09;93740.75;;;18.24;32.75
9676;BME280;4876;42.656;23.292;2023-04-15T11:33:36;93746.81;;;18.17;32.95
9676;BME280;4876;42.656;23.292;2023-04-15T11:36:05;93741.56;;;18.32;34.28
9676;BME280;4876;42.656;23.292;2023-04-15T11:38:33;93756.03;;;18.34;35.39
9676;BME280;4876;42.656;23.292;2023-04-15T11:41:00;93742.00;;;18.41;35.25
9676;BME280;4876;42.656;23.292;2023-04-15T11:43:31;93748.75;;;18.24;34.78
9676;BME280;4876;42.656;23.292;2023-04-15T11:46:01;93751.00;;;18.15;35.88
9676;BME280;4876;42.656;23.292;2023-04-15T11:48:29;93741.97;;;18.34;34.84
9676;BME280;4876;42.656;23.292;2023-04-15T11:50:58;93745.88;;;18.54;34.50
9676;BME280;4876;42.656;23.292;2023-04-15T11:53:37;93743.16;;;18.50;34.40
9676;BME280;4876;42.656;23.292;2023-04-15T11:56:07;93747.69;;;18.36;35.39
9676;BME280;4876;42.656;23.292;2023-04-15T11:58:35;93746.63;;;18.51;34.11
9676;BME280;4876;42.656;23.292;2023-04-15T12:01:04;93740.19;;;18.66;33.71
9676;BME280;4876;42.656;23.292;2023-04-15T12:03:36;93742.66;;;18.23;34.01
9676;BME280;4876;42.656;23.292;2023-04-15T12:06:08;93737.19;;;17.98;34.47
9676;BME280;4876;42.656;23.292;2023-04-15T12:08:58;93739.00;;;18.53;34.77
9676;BME280;4876;42.656;23.292;2023-04-15T12:11:30;93734.34;;;18.28;33.44
9676;BME280;4876;42.656;23.292;2023-04-15T12:13:58;93737.25;;;18.06;33.89
9676;BME280;4876;42.656;23.292;2023-04-15T12:16:28;93733.50;;;18.17;33.51
9676;BME280;4876;42.656;23.292;2023-04-15T12:18:56;93734.38;;;18.36;33.56
9676;BME280;4876;42.656;23.292;2023-04-15T12:21:27;93726.03;;;18.41;32.86
9676;BME280;4876;42.656;23.292;2023-04-15T12:23:56;93741.31;;;18.58;33.59
9676;BME280;4876;42.656;23.292;2023-04-15T12:26:27;93734.53;;;18.68;33.05
9676;BME280;4876;42.656;23.292;2023-04-15T12:28:54;93739.75;;;18.46;32.72
9676;BME280;4876;42.656;23.292;2023-04-15T12:31:21;93744.34;;;18.53;33.15
9676;BME280;4876;42.656;23.292;2023-04-15T12:33:49;93712.69;;;18.37;33.01
9676;BME280;4876;42.656;23.292;2023-04-15T12:36:16;93749.66;;;18.56;33.25
9676;BME280;4876;42.656;23.292;2023-04-15T12:38:42;93742.50;;;18.68;33.48
9676;BME280;4876;42.656;23.292;2023-04-15T12:41:11;93739.28;;;18.26;32.68
9676;BME280;4876;42.656;23.292;2023-04-15T12:43:38;93744.28;;;18.42;33.39
9676;BME280;4876;42.656;23.292;2023-04-15T12:46:05;93750.91;;;18.70;33.88
9676;BME280;4876;42.656;23.292;2023-04-15T12:48:32;93746.38;;;18.77;32.82
9676;BME280;4876;42.656;23.292;2023-04-15T12:50:59;93742.56;;;18.78;32.62
9676;BME280;4876;42.656;23.292;2023-04-15T12:53:26;93742.97;;;18.84;32.35
9676;BME280;4876;42.656;23.292;2023-04-15T12:55:53;93749.00;;;18.70;31.92
9676;BME280;4876;42.656;23.292;2023-04-15T12:58:22;93756.31;;;18.95;32.17
9676;BME280;4876;42.656;23.292;2023-04-15T13:00:49;93757.44;;;18.83;33.49
9676;BME280;4876;42.656;23.292;2023-04-15T13:03:16;93758.91;;;18.80;32.34
9676;BME280;4876;42.656;23.292;2023-04-15T13:05:42;93750.94;;;18.80;31.73
9676;BME280;4876;42.656;23.292;2023-04-15T13:08:09;93745.88;;;18.54;31.04
9676;BME280;4876;42.656;23.292;2023-04-15T13:10:36;93738.84;;;18.17;33.08
9676;BME280;4876;42.656;23.292;2023-04-15T13:13:03;93753.81;;;18.47;32.52
9676;BME280;4876;42.656;23.292;2023-04-15T13:15:31;93737.84;;;18.47;32.99
9676;BME280;4876;42.656;23.292;2023-04-15T13:17:58;93730.75;;;18.76;32.72
9676;BME280;4876;42.656;23.292;2023-04-15T13:20:25;93736.88;;;18.91;33.28
9676;BME280;4876;42.656;23.292;2023-04-15T13:22:53;93737.66;;;18.98;32.62
9676;BME280;4876;42.656;23.292;2023-04-15T13:25:20;93736.53;;;19.10;32.42